Time;durP1;ratioP1;P1;durP2;ratioP2;P2;SDS_P1;SDS_P2;PMS_P1;PMS_P2;Temp;Humidity;BMP_temperature;BMP_pressure;BME280_temperature;BME280_humidity;BME280_pressure;Samples;Min_cycle;Max_cycle;Signal;HPM_P1;HPM_P2
2021/01/01 00:02:06;;;;;;;26.05;14.23;;;;;;;21.96;57.65;156908.13;1715266;82;21745;-77
2021/01/01 00:04:39;;;;;;;26.37;13.53;;;;;;;21.96;58.12;156908.13;1734053;82;21360;-76
2021/01/01 00:07:12;;;;;;;26.95;14.03;;;;;;;21.98;56.92;156914.72;1725641;83;21386;-77
2021/01/01 00:09:44;;;;;;;25.82;12.88;;;;;;;21.98;57.43;156914.72;1716037;82;21270;-77
2021/01/01 00:12:16;;;;;;;26.45;13.72;;;;;;;21.80;57.74;156865.75;1717335;82;22307;-77
2021/01/01 00:14:49;;;;;;;26.27;14.43;;;;;;;21.80;57.60;156864.44;1723224;82;21304;-77
2021/01/01 00:17:21;;;;;;;31.00;15.50;;;;;;;21.86;57.87;156881.66;1722128;82;21302;-77
2021/01/01 00:19:53;;;;;;;26.57;14.25;;;;;;;21.86;58.29;156882.95;1725635;82;21232;-77
2021/01/01 00:22:26;;;;;;;28.12;15.63;;;;;;;21.90;58.14;156892.22;1707869;82;21226;-77
2021/01/01 00:24:58;;;;;;;27.58;13.35;;;;;;;21.89;58.98;156890.91;1726492;81;21251;-77
2021/01/01 00:27:31;;;;;;;26.02;12.93;;;;;;;21.86;58.46;156882.95;1725347;82;21220;-77
2021/01/01 00:30:08;;;;;;;26.30;13.40;;;;;;;21.81;58.64;156868.39;1725696;82;21181;-77
2021/01/01 00:32:43;;;;;;;23.83;12.75;;;;;;;21.80;58.57;156865.75;1699168;83;21210;-77
2021/01/01 00:35:17;;;;;;;26.48;13.78;;;;;;;21.80;59.03;156865.75;1730213;82;21317;-77
2021/01/01 00:37:49;;;;;;;25.50;12.47;;;;;;;21.75;59.00;156852.53;1717958;82;21221;-77
2021/01/01 00:40:21;;;;;;;24.75;13.90;;;;;;;21.79;58.28;156861.78;1737533;82;21735;-76
2021/01/01 00:42:54;;;;;;;23.83;12.28;;;;;;;21.76;58.68;156855.13;1718282;82;21196;-76
2021/01/01 00:45:26;;;;;;;27.62;13.43;;;;;;;21.87;58.46;156884.31;1728422;82;21182;-76
2021/01/01 00:47:58;;;;;;;25.85;13.35;;;;;;;21.82;58.42;156871.05;1725538;82;21395;-77
2021/01/01 00:50:31;;;;;;;27.17;13.32;;;;;;;21.75;58.79;156851.19;1730083;82;21209;-76
2021/01/01 00:53:03;;;;;;;24.30;13.45;;;;;;;21.48;58.68;156781.00;1726384;82;21257;-76
2021/01/01 00:55:36;;;;;;;24.30;13.43;;;;;;;21.65;58.23;156826.02;1716656;82;21205;-77
2021/01/01 00:58:08;;;;;;;26.05;14.05;;;;;;;21.43;58.19;156767.73;1719736;82;21176;-76
2021/01/01 01:00:41;;;;;;;25.57;13.05;;;;;;;21.47;58.52;156778.34;1726320;82;21697;-76
2021/01/01 01:03:13;;;;;;;21.80;12.33;;;;;;;21.55;58.07;156798.20;1716887;82;21221;-76
2021/01/01 01:05:45;;;;;;;27.00;12.95;;;;;;;21.49;58.40;156783.66;1721133;82;21162;-76
2021/01/01 01:08:18;;;;;;;26.00;13.50;;;;;;;21.41;59.44;156761.14;1722264;82;21827;-76
2021/01/01 01:10:50;;;;;;;27.60;14.28;;;;;;;21.37;58.84;156751.89;1728930;82;21230;-76
2021/01/01 01:13:22;;;;;;;25.30;12.88;;;;;;;21.47;58.35;156778.34;1690937;84;22285;-76
2021/01/01 01:15:55;;;;;;;24.87;13.05;;;;;;;21.63;57.87;156819.41;1672475;85;21197;-77
2021/01/01 01:18:27;;;;;;;27.93;13.78;;;;;;;21.59;57.98;156810.16;1646377;85;21201;-76
2021/01/01 01:21:00;;;;;;;29.67;14.15;;;;;;;21.57;57.73;156804.86;1678068;84;21223;-76
2021/01/01 01:23:33;;;;;;;25.62;12.73;;;;;;;21.57;57.91;156803.56;1676556;85;21384;-76
2021/01/01 01:26:06;;;;;;;32.85;13.35;;;;;;;21.56;58.04;156800.86;1660802;85;21348;-75
2021/01/01 01:28:38;;;;;;;24.72;12.63;;;;;;;21.44;58.45;156770.39;1649483;85;21234;-75
2021/01/01 01:31:10;;;;;;;26.68;13.60;;;;;;;21.51;58.27;156788.95;1707647;82;21233;-75
2021/01/01 01:33:43;;;;;;;24.37;11.40;;;;;;;21.48;58.24;156779.64;1732329;82;21223;-75
2021/01/01 01:36:15;;;;;;;27.27;13.18;;;;;;;21.36;58.48;156747.89;1717692;82;21634;-75
2021/01/01 01:38:47;;;;;;;23.15;11.93;;;;;;;21.50;58.00;156786.30;1717987;82;21388;-75
2021/01/01 01:41:20;;;;;;;31.73;12.40;;;;;;;21.58;58.30;156807.50;1707330;82;21361;-75
2021/01/01 01:43:52;;;;;;;29.37;13.45;;;;;;;21.70;57.63;156837.97;1728391;82;21390;-75
2021/01/01 01:46:25;;;;;;;29.65;13.25;;;;;;;21.67;57.68;156831.33;1726980;82;21692;-75
2021/01/01 01:48:57;;;;;;;27.07;13.38;;;;;;;21.62;57.72;156818.11;1658116;86;21865;-75
2021/01/01 01:51:29;;;;;;;27.00;13.32;;;;;;;21.66;57.11;156827.38;1716391;82;21232;-75
2021/01/01 01:54:02;;;;;;;23.35;11.68;;;;;;;21.58;57.70;156806.20;1715984;83;21363;-76
2021/01/01 01:56:35;;;;;;;28.92;12.18;;;;;;;21.77;57.00;156857.78;1722125;82;21298;-76
2021/01/01 01:59:07;;;;;;;29.50;13.45;;;;;;;21.72;57.12;156844.58;1717085;82;21885;-75
2021/01/01 02:01:40;;;;;;;29.30;13.28;;;;;;;21.70;57.07;156837.97;1714460;83;21221;-75
2021/01/01 02:04:12;;;;;;;31.75;14.95;;;;;;;21.79;56.00;156863.09;1731118;82;21884;-75
2021/01/01 02:06:45;;;;;;;26.77;12.95;;;;;;;21.72;56.55;156844.58;1721946;82;21311;-75
2021/01/01 02:09:18;;;;;;;35.03;15.15;;;;;;;21.75;56.26;156852.53;1717152;83;21217;-75
2021/01/01 02:11:50;;;;;;;32.60;14.13;;;;;;;21.67;56.51;156830.02;1708202;82;21864;-75
2021/01/01 02:14:22;;;;;;;29.92;13.83;;;;;;;21.58;56.34;156807.50;1701429;82;21397;-75
2021/01/01 02:16:55;;;;;;;29.75;14.70;;;;;;;21.49;56.62;156783.66;1718979;82;21346;-76
2021/01/01 02:19:27;;;;;;;28.52;14.33;;;;;;;21.51;56.43;156787.59;1730180;82;21195;-75
2021/01/01 02:22:03;;;;;;;31.73;15.05;;;;;;;21.47;56.13;156778.34;1730252;82;21368;-75
2021/01/01 02:24:36;;;;;;;29.52;14.85;;;;;;;21.49;55.99;156782.30;1685233;85;21199;-75
2021/01/01 02:27:08;;;;;;;32.42;15.98;;;;;;;21.54;55.85;156795.56;1722933;82;21361;-76
2021/01/01 02:29:40;;;;;;;34.35;16.00;;;;;;;21.53;55.93;156794.20;1735163;82;21320;-76
2021/01/01 02:32:13;;;;;;;32.17;15.20;;;;;;;21.50;55.96;156784.95;1736557;82;21424;-75
2021/01/01 02:34:46;;;;;;;33.83;15.85;;;;;;;21.49;55.84;156782.30;1736598;82;21425;-76
2021/01/01 02:37:18;;;;;;;30.72;15.10;;;;;;;21.51;55.82;156788.95;1736728;82;21245;-75
2021/01/01 02:39:51;;;;;;;29.50;15.18;;;;;;;21.53;56.02;156794.20;1736256;82;21344;-75
2021/01/01 02:42:23;;;;;;;33.45;15.78;;;;;;;21.57;55.74;156803.56;1736401;82;21404;-76
2021/01/01 02:44:55;;;;;;;28.73;14.87;;;;;;;21.54;55.66;156795.56;1710816;82;21288;-76
2021/01/01 02:47:27;;;;;;;31.33;15.13;;;;;;;21.55;56.16;156799.50;1736330;82;21908;-75
2021/01/01 02:50:00;;;;;;;31.75;16.07;;;;;;;21.47;55.98;156778.34;1736762;82;21736;-75
2021/01/01 02:52:32;;;;;;;32.17;15.08;;;;;;;21.60;55.97;156811.47;1734454;82;21313;-75
2021/01/01 02:55:05;;;;;;;29.37;14.38;;;;;;;21.63;55.79;156820.77;1722073;82;21357;-75
2021/01/01 02:57:38;;;;;;;31.85;15.90;;;;;;;21.64;56.03;156823.42;1736636;82;21835;-75
2021/01/01 03:00:12;;;;;;;37.15;16.97;;;;;;;21.67;55.67;156831.33;1736727;82;21292;-76
2021/01/01 03:02:44;;;;;;;29.87;15.58;;;;;;;21.67;55.69;156830.02;1713563;82;21312;-76
2021/01/01 03:05:16;;;;;;;30.48;15.13;;;;;;;21.62;55.42;156818.11;1717482;82;21415;-76
2021/01/01 03:07:48;;;;;;;29.48;15.72;;;;;;;21.73;55.60;156847.23;1736691;82;21209;-76
2021/01/01 03:10:21;;;;;;;27.40;14.73;;;;;;;21.77;55.78;156856.48;1736189;82;21218;-75
2021/01/01 03:12:53;;;;;;;29.07;15.50;;;;;;;21.77;55.36;156857.78;1720258;82;21184;-75
2021/01/01 03:15:25;;;;;;;31.27;16.05;;;;;;;21.81;55.55;156867.09;1732241;82;21300;-76
2021/01/01 03:17:58;;;;;;;36.38;15.80;;;;;;;21.88;55.43;156886.91;1723019;82;21312;-76
2021/01/01 03:20:30;;;;;;;30.62;14.87;;;;;;;21.88;55.08;156886.91;1734552;82;21934;-76
2021/01/01 03:23:02;;;;;;;29.50;15.08;;;;;;;21.83;54.89;156875.00;1735378;82;21347;-75
2021/01/01 03:25:35;;;;;;;26.37;15.08;;;;;;;21.93;55.14;156900.16;1736564;82;21229;-76
2021/01/01 03:28:10;;;;;;;28.52;15.20;;;;;;;21.96;54.84;156908.13;1735887;82;21371;-76
2021/01/01 03:30:42;;;;;;;25.88;15.35;;;;;;;21.89;54.47;156889.56;1733091;83;21727;-76
2021/01/01 03:33:14;;;;;;;27.30;15.38;;;;;;;21.95;55.26;156906.77;1733459;82;21213;-76
2021/01/01 03:35:46;;;;;;;28.95;15.95;;;;;;;22.01;55.40;156921.33;1715870;83;21371;-76
2021/01/01 03:38:19;;;;;;;30.23;16.25;;;;;;;22.02;55.12;156923.98;1720565;83;21178;-76
2021/01/01 03:40:51;;;;;;;30.88;15.00;;;;;;;22.12;54.70;156950.45;1734380;83;21277;-76
2021/01/01 03:43:23;;;;;;;30.57;16.20;;;;;;;22.12;54.71;156950.45;1733152;83;21194;-76
2021/01/01 03:45:56;;;;;;;24.95;14.83;;;;;;;22.10;54.33;156945.20;1733035;83;21170;-75
2021/01/01 03:48:28;;;;;;;28.50;16.42;;;;;;;22.15;54.81;156958.41;1731963;83;21263;-76
2021/01/01 03:51:00;;;;;;;23.30;14.15;;;;;;;22.18;54.12;156966.38;1732484;83;21204;-75
2021/01/01 03:53:32;;;;;;;26.85;14.83;;;;;;;22.12;53.79;156951.81;1733303;83;21243;-76
2021/01/01 03:56:05;;;;;;;24.43;13.80;;;;;;;22.03;54.40;156926.62;1723160;82;21198;-78
2021/01/01 03:58:38;;;;;;;31.40;14.73;;;;;;;22.05;54.54;156931.94;1714667;83;21352;-77
2021/01/01 04:01:10;;;;;;;23.67;14.07;;;;;;;21.95;54.43;156906.77;1732837;83;21223;-77
2021/01/01 04:03:43;;;;;;;21.97;12.65;;;;;;;21.98;54.61;156913.42;1731099;82;21227;-75
2021/01/01 04:06:15;;;;;;;25.35;14.80;;;;;;;22.08;54.15;156939.91;1733460;83;22370;-76
2021/01/01 04:08:47;;;;;;;26.55;13.93;;;;;;;22.00;54.49;156920.03;1732927;83;22688;-76
2021/01/01 04:11:20;;;;;;;28.75;14.47;;;;;;;22.03;54.30;156927.98;1732955;83;22047;-75
2021/01/01 04:13:52;;;;;;;25.10;13.18;;;;;;;22.02;54.26;156923.98;1674413;85;21424;-76
2021/01/01 04:16:25;;;;;;;23.73;13.88;;;;;;;22.10;53.70;156946.50;1731239;83;21215;-76
2021/01/01 04:18:57;;;;;;;24.45;13.58;;;;;;;21.89;53.99;156889.56;1732636;83;21177;-76
2021/01/01 04:21:29;;;;;;;21.27;11.83;;;;;;;21.83;54.24;156875.00;1731850;83;21204;-77
2021/01/01 04:24:01;;;;;;;21.68;12.58;;;;;;;21.87;54.10;156884.31;1697177;84;21743;-76
2021/01/01 04:26:34;;;;;;;18.98;12.60;;;;;;;21.91;53.80;156896.22;1696603;84;21719;-76
2021/01/01 04:29:07;;;;;;;26.85;12.10;;;;;;;21.83;53.65;156875.00;1732605;82;21671;-75
2021/01/01 04:31:39;;;;;;;24.07;11.93;;;;;;;21.67;54.83;156831.33;1734488;82;21225;-75
2021/01/01 04:34:12;;;;;;;20.55;11.80;;;;;;;21.68;55.26;156833.97;1734870;82;21383;-75
2021/01/01 04:36:44;;;;;;;23.10;13.15;;;;;;;21.55;57.03;156799.50;1733709;82;21898;-75
2021/01/01 04:39:17;;;;;;;21.55;12.95;;;;;;;21.23;57.28;156713.53;1734933;82;21342;-75
2021/01/01 04:41:51;;;;;;;19.77;11.22;;;;;;;21.31;57.99;156734.69;1734849;82;22482;-76
2021/01/01 04:44:25;;;;;;;17.05;10.43;;;;;;;21.33;58.00;156741.28;1734884;82;21328;-76
2021/01/01 04:46:57;;;;;;;17.98;10.88;;;;;;;21.27;56.61;156724.08;1735499;82;21304;-76
2021/01/01 04:49:29;;;;;;;19.27;11.38;;;;;;;21.12;59.39;156685.72;1735187;82;21355;-76
2021/01/01 04:52:03;;;;;;;19.92;12.75;;;;;;;20.86;59.74;156615.63;1735385;82;21189;-76
2021/01/01 04:54:36;;;;;;;19.27;11.18;;;;;;;20.98;58.45;156648.67;1735022;82;21236;-76
2021/01/01 04:57:08;;;;;;;18.52;10.63;;;;;;;20.95;58.13;156639.42;1734591;82;21831;-76
2021/01/01 04:59:40;;;;;;;17.50;11.03;;;;;;;21.04;57.34;156664.58;1735235;82;21331;-76
2021/01/01 05:02:13;;;;;;;21.70;11.30;;;;;;;21.12;57.30;156684.42;1735186;82;21248;-76
2021/01/01 05:04:49;;;;;;;22.35;12.45;;;;;;;21.06;57.39;156668.53;1734653;82;21205;-76
2021/01/01 05:07:21;;;;;;;21.85;12.33;;;;;;;21.06;58.25;156668.53;1734309;82;21358;-76
2021/01/01 05:09:53;;;;;;;21.55;12.73;;;;;;;21.08;57.92;156673.81;1734293;82;21368;-76
2021/01/01 05:12:31;;;;;;;21.33;12.10;;;;;;;20.97;57.32;156646.03;1734800;82;21208;-76
2021/01/01 05:15:04;;;;;;;19.62;11.33;;;;;;;20.85;58.37;156612.97;1734891;82;21260;-76
2021/01/01 05:17:37;;;;;;;19.00;11.53;;;;;;;20.92;57.99;156631.47;1734755;82;21215;-76
2021/01/01 05:20:10;;;;;;;19.90;11.10;;;;;;;20.85;57.10;156612.97;1735207;82;21978;-76
2021/01/01 05:22:43;;;;;;;20.55;10.78;;;;;;;20.97;57.27;156644.72;1735063;82;21883;-76
2021/01/01 05:25:17;;;;;;;18.92;11.33;;;;;;;20.94;57.49;156638.12;1734872;82;21208;-76
2021/01/01 05:27:50;;;;;;;22.17;11.20;;;;;;;20.88;57.21;156619.58;1735265;82;21311;-76
2021/01/01 05:30:27;;;;;;;17.55;11.50;;;;;;;20.91;57.33;156628.81;1734991;81;21232;-75
2021/01/01 05:33:00;;;;;;;23.38;12.03;;;;;;;21.05;56.76;156665.88;1734844;81;21298;-75
2021/01/01 05:35:33;;;;;;;23.40;11.15;;;;;;;20.99;56.46;156650.03;1733328;82;21918;-75
2021/01/01 05:38:21;;;;;;;21.60;11.08;;;;;;;21.15;56.36;156692.33;1734478;82;21296;-76
2021/01/01 05:40:54;;;;;;;18.73;10.60;;;;;;;21.12;56.03;156684.42;1734440;82;21371;-76
2021/01/01 05:43:26;;;;;;;21.62;10.50;;;;;;;21.08;55.73;156673.81;1734660;82;21386;-76
2021/01/01 05:46:09;;;;;;;19.75;10.20;;;;;;;21.18;56.25;156701.56;1734861;82;21354;-76
2021/01/01 05:48:41;;;;;;;18.87;10.88;;;;;;;21.26;55.78;156722.78;1734984;82;21382;-76
2021/01/01 05:51:13;;;;;;;20.50;10.10;;;;;;;21.25;55.10;156720.12;1732392;82;21823;-76
2021/01/01 05:53:45;;;;;;;16.50;9.33;;;;;;;21.23;56.04;156713.53;1734076;82;21330;-76
2021/01/01 05:56:18;;;;;;;15.68;8.60;;;;;;;21.33;55.77;156739.98;1664917;84;21737;-76
2021/01/01 05:58:50;;;;;;;17.27;9.30;;;;;;;21.31;55.31;156734.69;1730154;82;21350;-76
2021/01/01 06:01:23;;;;;;;21.87;9.30;;;;;;;21.36;55.35;156747.89;1728304;82;21800;-76
2021/01/01 06:03:56;;;;;;;19.55;10.48;;;;;;;21.38;54.58;156753.19;1685876;83;21243;-76
2021/01/01 06:06:30;;;;;;;18.48;10.30;;;;;;;21.49;54.60;156783.66;1734385;82;21827;-76
2021/01/01 06:09:05;;;;;;;20.35;10.70;;;;;;;21.31;54.91;156734.69;1735704;82;21358;-77
2021/01/01 06:11:38;;;;;;;18.82;10.72;;;;;;;21.28;54.75;156728.08;1719240;82;21926;-77
2021/01/01 06:14:10;;;;;;;16.57;9.23;;;;;;;21.30;54.78;156732.03;1723395;82;21207;-76
2021/01/01 06:16:46;;;;;;;18.48;9.80;;;;;;;21.35;54.63;156746.59;1734811;82;21308;-76
2021/01/01 06:19:18;;;;;;;18.25;10.08;;;;;;;21.37;54.57;156751.89;1726288;82;21375;-76
2021/01/01 06:21:51;;;;;;;20.30;9.28;;;;;;;21.45;54.29;156771.75;1711843;82;21700;-74
2021/01/01 06:24:23;;;;;;;16.75;9.43;;;;;;;21.36;54.38;156749.23;1735765;82;21164;-75
2021/01/01 06:26:55;;;;;;;15.90;9.55;;;;;;;21.28;54.52;156728.08;1729508;82;21297;-75
2021/01/01 06:29:28;;;;;;;16.93;9.53;;;;;;;21.29;54.68;156729.38;1719126;82;21889;-73
2021/01/01 06:32:00;;;;;;;18.90;9.15;;;;;;;21.28;54.45;156728.08;1733431;82;21348;-74
2021/01/01 06:34:33;;;;;;;18.85;10.13;;;;;;;21.26;54.36;156722.78;1734168;83;21174;-71
2021/01/01 06:37:07;;;;;;;17.40;9.68;;;;;;;21.27;54.48;156725.44;1727862;83;21274;-72
2021/01/01 06:39:41;;;;;;;17.57;9.50;;;;;;;21.21;54.53;156708.22;1726370;82;21192;-71
2021/01/01 06:42:13;;;;;;;17.90;8.65;;;;;;;21.18;54.37;156701.56;1726672;83;21324;-72
2021/01/01 06:44:46;;;;;;;17.57;9.95;;;;;;;21.28;54.46;156728.08;1719720;83;21823;-70
2021/01/01 06:47:43;;;;;;;18.05;8.93;;;;;;;21.24;54.28;156717.48;1729161;82;21380;-75
2021/01/01 06:50:33;;;;;;;19.27;9.63;;;;;;;21.39;54.33;156757.19;1719286;83;22297;-79
2021/01/01 06:53:14;;;;;;;17.98;9.75;;;;;;;21.49;53.84;156783.66;1669475;84;21408;-75
2021/01/01 06:55:50;;;;;;;17.52;9.65;;;;;;;21.57;53.93;156804.86;1727116;82;21173;-82
2021/01/01 06:58:28;;;;;;;17.10;9.05;;;;;;;21.46;53.94;156775.69;1725871;82;21181;-73
2021/01/01 07:01:01;;;;;;;20.62;8.98;;;;;;;21.37;54.33;156751.89;1728768;83;21240;-79
2021/01/01 07:03:40;;;;;;;22.02;9.68;;;;;;;21.30;54.31;156732.03;1730457;82;21264;-76
2021/01/01 07:06:34;;;;;;;20.30;10.68;;;;;;;21.16;54.19;156696.33;1726325;82;21383;-81
2021/01/01 07:09:11;;;;;;;19.98;9.48;;;;;;;21.38;54.03;156754.53;1727755;82;21703;-85
2021/01/01 07:11:44;;;;;;;18.82;9.63;;;;;;;21.23;54.60;156713.53;1731280;82;21784;-76
2021/01/01 07:14:20;;;;;;;17.82;9.65;;;;;;;21.74;56.00;156848.53;1731059;82;21325;-75
2021/01/01 07:16:54;;;;;;;20.30;10.78;;;;;;;21.99;54.99;156916.03;1730750;82;21281;-76
2021/01/01 07:19:26;;;;;;;23.90;9.98;;;;;;;21.96;55.53;156908.13;1692906;83;21242;-75
2021/01/01 07:21:58;;;;;;;22.02;11.18;;;;;;;22.03;56.72;156926.62;1675951;84;21848;-76
2021/01/01 07:24:31;;;;;;;17.30;9.25;;;;;;;21.83;56.27;156875.00;1732060;82;21186;-73
2021/01/01 07:27:04;;;;;;;24.12;10.40;;;;;;;21.82;55.81;156869.69;1727672;82;21491;-75
2021/01/01 07:29:36;;;;;;;25.88;12.45;;;;;;;21.82;57.10;156871.05;1697643;84;21427;-74
2021/01/01 07:32:09;;;;;;;22.17;9.90;;;;;;;21.77;56.58;156856.48;1731320;82;21242;-71
2021/01/01 07:34:42;;;;;;;19.05;9.78;;;;;;;21.47;56.62;156778.34;1708899;82;21495;-76
2021/01/01 07:37:14;;;;;;;23.40;10.98;;;;;;;21.50;57.89;156786.30;1733799;82;21317;-76
2021/01/01 07:39:47;;;;;;;22.85;11.80;;;;;;;21.73;57.53;156845.88;1732011;81;21331;-78
2021/01/01 07:42:19;;;;;;;20.37;10.58;;;;;;;21.66;57.36;156828.67;1732231;82;21756;-78
2021/01/01 07:44:52;;;;;;;23.00;10.75;;;;;;;21.63;56.76;156820.77;1731734;82;21363;-81
2021/01/01 07:47:25;;;;;;;19.95;9.53;;;;;;;21.33;57.20;156741.28;1730893;82;21400;-76
2021/01/01 07:49:59;;;;;;;19.07;10.50;;;;;;;21.50;57.48;156786.30;1728937;82;21277;-82
2021/01/01 07:52:32;;;;;;;18.98;9.48;;;;;;;21.40;59.47;156759.84;1730357;82;21376;-76
2021/01/01 07:55:05;;;;;;;20.00;10.13;;;;;;;21.51;58.88;156787.59;1729358;82;21391;-76
2021/01/01 07:57:39;;;;;;;25.08;10.35;;;;;;;21.38;59.81;156753.19;1728719;82;21872;-75
2021/01/01 08:00:12;;;;;;;20.00;10.25;;;;;;;21.21;58.99;156708.22;1727149;82;21257;-74
2021/01/01 08:02:45;;;;;;;19.52;10.05;;;;;;;21.57;59.49;156804.86;1729961;82;21356;-83
2021/01/01 08:05:17;;;;;;;20.45;10.65;;;;;;;21.40;58.42;156759.84;1728613;82;21396;-77
2021/01/01 08:07:50;;;;;;;24.45;10.55;;;;;;;21.47;58.42;156778.34;1729773;82;22033;-77
2021/01/01 08:10:35;;;;;;;18.10;9.80;;;;;;;21.43;58.65;156767.73;1727238;82;21377;-77
2021/01/01 08:13:27;;;;;;;17.30;9.65;;;;;;;21.59;58.25;156808.81;1727763;82;21323;-83
2021/01/01 08:16:13;;;;;;;22.85;11.80;;;;;;;21.54;57.55;156795.56;1700129;83;21559;-77
2021/01/01 08:18:46;;;;;;;18.35;8.90;;;;;;;21.41;57.74;156762.44;1730967;82;21383;-79
2021/01/01 08:21:19;;;;;;;17.23;9.73;;;;;;;21.29;57.68;156729.38;1734163;82;21324;-81
2021/01/01 08:24:05;;;;;;;15.32;8.98;;;;;;;21.47;57.59;156777.05;1732901;82;21265;-74
2021/01/01 08:26:38;;;;;;;18.45;10.00;;;;;;;21.55;57.21;156798.20;1729389;82;21692;-77
2021/01/01 08:29:12;;;;;;;17.95;10.08;;;;;;;21.67;57.44;156831.33;1729041;81;21210;-74
2021/01/01 08:31:45;;;;;;;19.07;11.00;;;;;;;21.69;57.07;156835.33;1727928;82;21321;-71
2021/01/01 08:34:18;;;;;;;20.65;11.70;;;;;;;21.92;56.85;156897.52;1725365;82;21230;-71
2021/01/01 08:36:52;;;;;;;18.60;10.10;;;;;;;22.02;56.95;156925.34;1728605;82;21384;-73
2021/01/01 08:39:26;;;;;;;18.60;11.90;;;;;;;21.87;56.84;156884.31;1729529;82;21162;-75
2021/01/01 08:41:58;;;;;;;15.70;9.45;;;;;;;21.88;56.54;156888.25;1729826;82;21261;-76
2021/01/01 08:44:32;;;;;;;22.35;12.33;;;;;;;22.34;56.64;157008.77;1729169;82;21375;-75
2021/01/01 08:47:06;;;;;;;21.48;11.80;;;;;;;22.51;56.35;157053.81;1727546;81;21249;-75
2021/01/01 08:49:38;;;;;;;20.37;12.18;;;;;;;22.16;56.22;156961.06;1726958;82;21257;-78
2021/01/01 08:52:12;;;;;;;16.30;8.83;;;;;;;22.55;56.43;157065.73;1725840;81;21284;-78
2021/01/01 08:54:46;;;;;;;20.35;11.63;;;;;;;22.45;55.77;157039.25;1728481;81;21329;-76
2021/01/01 08:57:22;;;;;;;29.25;18.15;;;;;;;22.59;56.08;157076.34;1726325;81;21249;-78
2021/01/01 09:00:00;;;;;;;17.20;11.33;;;;;;;22.75;55.63;157117.41;1707739;83;21310;-81
2021/01/01 09:02:35;;;;;;;26.40;14.58;;;;;;;22.63;55.90;157085.61;1726306;81;21365;-74
2021/01/01 09:05:12;;;;;;;22.70;11.95;;;;;;;22.93;55.35;157166.42;1728614;82;21419;-74
2021/01/01 09:08:19;;;;;;;21.65;13.53;;;;;;;23.05;56.01;157199.58;1727327;82;21231;-78
2021/01/01 09:10:59;;;;;;;18.65;8.50;;;;;;;23.17;55.56;157230.08;1710711;83;21245;-75
2021/01/01 09:13:35;;;;;;;13.40;8.08;;;;;;;23.37;54.68;157284.44;1727280;83;21292;-75
2021/01/01 09:16:11;;;;;;;13.15;7.15;;;;;;;23.68;54.13;157366.59;1729151;82;21388;-76
2021/01/01 09:18:44;;;;;;;11.15;6.87;;;;;;;23.73;53.90;157381.19;1730169;82;21372;-78
2021/01/01 09:21:22;;;;;;;11.90;7.08;;;;;;;23.58;54.31;157340.09;1720492;81;21409;-77
2021/01/01 09:24:02;;;;;;;15.68;8.08;;;;;;;23.59;54.05;157341.39;1728325;82;21363;-77
2021/01/01 09:26:36;;;;;;;14.35;6.80;;;;;;;23.67;54.05;157363.94;1733502;82;21206;-78
2021/01/01 09:29:10;;;;;;;13.55;7.80;;;;;;;23.65;54.26;157357.33;1728464;82;21241;-81
2021/01/01 09:31:45;;;;;;;16.55;7.80;;;;;;;23.74;54.05;157382.48;1696563;83;21266;-72
2021/01/01 09:34:23;;;;;;;15.88;6.75;;;;;;;23.84;53.89;157409.09;1729317;82;21198;-75
2021/01/01 09:37:01;;;;;;;12.18;6.60;;;;;;;24.02;53.86;157458.11;1740806;81;22167;-74
2021/01/01 09:39:33;;;;;;;11.00;7.03;;;;;;;23.89;55.00;157423.69;1698173;82;21218;-72
2021/01/01 09:42:07;;;;;;;12.88;6.58;;;;;;;24.06;56.77;157467.44;1740541;81;21745;-71
2021/01/01 09:44:40;;;;;;;9.70;6.47;;;;;;;23.93;61.12;156640.19;1741524;81;21252;-71
2021/01/01 09:47:12;;;;;;;11.30;6.12;;;;;;;23.68;61.16;157367.91;1696027;82;21343;-73
2021/01/01 09:49:45;;;;;;;9.65;5.50;;;;;;;23.81;58.57;157401.13;1741190;81;21404;-75
2021/01/01 09:52:18;;;;;;;9.18;5.12;;;;;;;23.76;58.49;157387.84;1741016;81;21181;-73
2021/01/01 09:54:51;;;;;;;9.20;5.70;;;;;;;23.87;58.30;157417.02;1741043;81;21162;-74
2021/01/01 09:57:24;;;;;;;9.18;5.55;;;;;;;23.66;57.22;157361.30;1741364;81;21197;-72
2021/01/01 09:59:59;;;;;;;10.23;5.35;;;;;;;23.76;58.29;157387.84;1741788;81;21185;-75
2021/01/01 10:02:36;;;;;;;9.53;5.30;;;;;;;23.90;58.50;157426.28;1741846;81;21224;-75
2021/01/01 10:05:12;;;;;;;9.38;5.80;;;;;;;23.91;57.35;157427.64;1742647;81;21189;-75
2021/01/01 10:07:46;;;;;;;14.10;5.90;;;;;;;24.05;57.89;157464.78;1741349;81;21232;-79
2021/01/01 10:10:21;;;;;;;12.85;6.00;;;;;;;24.09;57.57;157476.70;1741678;81;21735;-74
2021/01/01 10:12:54;;;;;;;11.12;5.97;;;;;;;24.06;56.89;157467.44;1740592;81;21489;-78
2021/01/01 10:15:27;;;;;;;9.78;6.08;;;;;;;24.02;56.85;157456.81;1741108;81;21233;-77
2021/01/01 10:18:01;;;;;;;9.53;5.83;;;;;;;24.06;57.14;157467.44;1741488;81;21236;-76
2021/01/01 10:20:35;;;;;;;11.78;5.83;;;;;;;24.11;57.05;157480.66;1741726;82;21169;-75
2021/01/01 10:23:11;;;;;;;9.95;5.92;;;;;;;24.03;56.08;157459.47;1741547;81;21228;-75
2021/01/01 10:25:44;;;;;;;13.98;6.12;;;;;;;23.99;56.11;157450.19;1742762;81;21178;-76
2021/01/01 10:28:18;;;;;;;10.78;5.67;;;;;;;24.03;56.15;157459.47;1741305;82;21197;-77
2021/01/01 10:30:51;;;;;;;8.45;5.47;;;;;;;24.04;56.10;157462.13;1740982;81;21211;-76
2021/01/01 10:33:24;;;;;;;10.65;6.70;;;;;;;24.06;55.81;157468.73;1741213;81;21181;-78
2021/01/01 10:35:57;;;;;;;8.55;5.45;;;;;;;24.14;55.57;157488.64;1737818;82;21188;-78
2021/01/01 10:38:34;;;;;;;8.43;5.05;;;;;;;24.05;55.61;157464.78;1729276;82;21169;-77
2021/01/01 10:41:07;;;;;;;9.18;5.90;;;;;;;23.90;58.34;157424.98;1730395;82;21206;-71
2021/01/01 10:43:46;;;;;;;8.78;5.75;;;;;;;23.75;56.15;157385.14;1730699;82;21379;-73
2021/01/01 10:46:22;;;;;;;13.62;7.17;;;;;;;23.83;56.38;157406.44;1723259;82;21414;-78
2021/01/01 10:49:03;;;;;;;11.00;7.05;;;;;;;23.82;56.07;157403.78;1732229;81;21319;-76
2021/01/01 10:51:52;;;;;;;8.28;5.12;;;;;;;23.72;56.11;157378.53;1730413;81;21850;-76
2021/01/01 10:54:25;;;;;;;9.65;4.87;;;;;;;23.84;55.71;157410.41;1727055;82;21756;-76
2021/01/01 10:56:59;;;;;;;17.90;7.67;;;;;;;23.73;55.30;157381.19;1726984;81;21241;-77
2021/01/01 10:59:33;;;;;;;8.85;5.45;;;;;;;23.97;55.16;157443.53;1726617;81;21260;-79
2021/01/01 11:02:06;;;;;;;7.25;4.47;;;;;;;23.86;54.77;157414.36;1730474;82;21417;-76
2021/01/01 11:04:41;;;;;;;9.58;4.55;;;;;;;24.08;54.95;157474.06;1730813;82;21289;-78
2021/01/01 11:07:14;;;;;;;5.92;3.92;;;;;;;24.20;54.78;157504.53;1723761;82;21273;-77
2021/01/01 11:09:47;;;;;;;7.37;4.53;;;;;;;24.04;54.46;157463.42;1731358;82;21317;-79
2021/01/01 11:12:21;;;;;;;8.30;4.60;;;;;;;24.12;54.38;157483.33;1727740;82;21326;-77
2021/01/01 12:25:48;;;;;;;6.30;4.50;;;;;;;24.56;52.93;157601.44;1711542;82;21237;-79
2021/01/01 12:28:21;;;;;;;7.33;4.30;;;;;;;24.50;52.87;157584.19;1710301;82;21378;-84
2021/01/01 12:30:56;;;;;;;9.00;5.15;;;;;;;24.57;53.03;157602.75;1710558;82;21369;-72
2021/01/01 12:33:29;;;;;;;5.20;3.65;;;;;;;24.58;53.13;157606.77;1711035;82;21743;-76
2021/01/01 12:36:01;;;;;;;6.05;3.47;;;;;;;24.63;53.20;157618.69;1711397;82;21860;-75
2021/01/01 12:38:33;;;;;;;4.85;3.30;;;;;;;24.68;52.57;157633.28;1711621;82;21205;-77
2021/01/01 12:41:05;;;;;;;4.85;3.50;;;;;;;24.68;52.31;157633.28;1711298;82;21879;-76
2021/01/01 12:43:38;;;;;;;4.50;3.45;;;;;;;24.59;52.22;157609.42;1710039;82;21876;-73
2021/01/01 12:46:11;;;;;;;9.25;4.53;;;;;;;24.48;54.26;157580.19;1711387;82;21326;-73
2021/01/01 12:48:48;;;;;;;7.17;4.33;;;;;;;23.45;81.51;157304.27;1708917;82;21481;-73
2021/01/01 12:51:22;;;;;;;6.80;3.87;;;;;;;33.76;71.08;160063.88;1711450;82;22116;-74
2021/01/01 12:53:54;;;;;;;7.10;4.05;;;;;;;28.78;63.15;158728.58;1709932;82;21378;-73
2021/01/01 12:56:26;;;;;;;6.60;3.45;;;;;;;28.59;60.12;158679.34;1711916;82;21302;-75